Time;durP1;ratioP1;P1;durP2;ratioP2;P2;SDS_P1;SDS_P2;PMS_P1;PMS_P2;Temp;Humidity;BMP_temperature;BMP_pressure;BME280_temperature;BME280_humidity;BME280_pressure;Samples;Min_cycle;Max_cycle;Signal;HPM_P1;HPM_P2
2023/03/08 00:03:24;;;;;;;9.93;6.28;;;;;;;;;;8220044;28;20046;-61
2023/03/08 00:07:25;;;;;;;9.43;6.30;;;;;;;;;;8218880;28;20129;-62
2023/03/08 00:11:25;;;;;;;8.65;6.25;;;;;;;;;;8218101;28;20027;-61
2023/03/08 00:15:25;;;;;;;9.82;6.68;;;;;;;;;;8213909;28;20038;-62
2023/03/08 00:19:26;;;;;;;10.70;6.78;;;;;;;;;;8211725;28;20027;-61
2023/03/08 00:23:26;;;;;;;10.13;5.97;;;;;;;;;;8225491;28;20030;-61
2023/03/08 00:27:26;;;;;;;10.18;6.07;;;;;;;;;;8220862;28;20034;-61
2023/03/08 00:31:26;;;;;;;10.05;6.60;;;;;;;;;;8216646;28;20394;-61
2023/03/08 00:35:26;;;;;;;10.75;6.97;;;;;;;;;;8219584;28;20026;-61
2023/03/08 00:39:27;;;;;;;13.88;6.57;;;;;;;;;;8214591;28;20021;-61
2023/03/08 00:43:27;;;;;;;10.85;6.47;;;;;;;;;;8224503;28;21936;-61
2023/03/08 00:47:27;;;;;;;9.50;6.22;;;;;;;;;;8223806;28;20065;-61
2023/03/08 00:51:27;;;;;;;8.90;6.40;;;;;;;;;;8226912;28;20030;-62
2023/03/08 00:55:28;;;;;;;11.38;6.95;;;;;;;;;;8225705;28;20033;-61
2023/03/08 00:59:28;;;;;;;10.95;6.13;;;;;;;;;;8224741;28;20714;-61
2023/03/08 01:03:28;;;;;;;9.15;6.38;;;;;;;;;;8216866;28;20228;-61
2023/03/08 01:07:29;;;;;;;11.10;6.50;;;;;;;;;;8219553;28;20113;-61
2023/03/08 01:11:29;;;;;;;11.18;7.07;;;;;;;;;;8222157;28;20363;-62
2023/03/08 01:15:30;;;;;;;8.70;6.17;;;;;;;;;;8220346;28;22591;-61
2023/03/08 01:19:30;;;;;;;10.98;6.43;;;;;;;;;;8220447;28;21528;-61
2023/03/08 01:23:30;;;;;;;11.25;6.82;;;;;;;;;;8216497;28;20026;-61
2023/03/08 01:27:30;;;;;;;9.90;6.32;;;;;;;;;;8219973;28;20034;-62
2023/03/08 01:31:31;;;;;;;9.17;6.30;;;;;;;;;;8214149;28;20565;-61
2023/03/08 01:35:31;;;;;;;9.27;6.40;;;;;;;;;;8222890;28;20285;-61
2023/03/08 01:39:31;;;;;;;12.43;6.78;;;;;;;;;;8220687;28;20034;-61
2023/03/08 01:43:35;;;;;;;9.85;6.28;;;;;;;;;;8210645;28;20033;-61
2023/03/08 01:47:37;;;;;;;10.27;7.05;;;;;;;;;;8219165;28;20439;-61
2023/03/08 01:51:58;;;;;;;11.93;7.20;;;;;;;;;;8220808;28;20026;-61
2023/03/08 01:55:58;;;;;;;10.32;7.20;;;;;;;;;;8224273;28;20129;-61
2023/03/08 02:00:02;;;;;;;15.13;6.77;;;;;;;;;;8223664;28;20029;-61
2023/03/08 02:04:02;;;;;;;;;;;;;;;;;;8221944;28;20331;-61
2023/03/08 02:08:03;;;;;;;9.98;6.53;;;;;;;;;;8215789;28;19953;-61
2023/03/08 02:12:06;;;;;;;10.18;6.90;;;;;;;;;;8216185;28;20472;-61
2023/03/08 02:16:08;;;;;;;8.75;6.32;;;;;;;;;;8223745;28;20077;-61
2023/03/08 02:20:21;;;;;;;12.05;6.97;;;;;;;;;;8222608;28;20030;-61
2023/03/08 02:24:22;;;;;;;9.48;6.30;;;;;;;;;;8219790;28;20034;-61
2023/03/08 02:28:24;;;;;;;11.57;6.55;;;;;;;;;;8218779;28;20025;-61
2023/03/08 02:32:24;;;;;;;13.02;7.68;;;;;;;;;;8219531;28;20037;-61
2023/03/08 02:36:24;;;;;;;10.38;6.72;;;;;;;;;;8224030;28;20030;-61
2023/03/08 02:40:24;;;;;;;9.70;7.05;;;;;;;;;;8220799;28;20124;-61
2023/03/08 02:44:25;;;;;;;10.18;6.70;;;;;;;;;;8222205;28;20556;-61
2023/03/08 02:48:25;;;;;;;11.90;6.83;;;;;;;;;;8217881;28;20054;-61
2023/03/08 02:52:25;;;;;;;14.35;7.28;;;;;;;;;;8220278;28;20262;-61
2023/03/08 02:56:25;;;;;;;11.02;7.00;;;;;;;;;;8220196;28;20312;-62
2023/03/08 03:00:25;;;;;;;10.13;6.97;;;;;;;;;;8221510;28;20045;-61
2023/03/08 03:04:29;;;;;;;9.20;6.75;;;;;;;;;;8220989;28;20030;-62
2023/03/08 03:08:30;;;;;;;10.07;6.63;;;;;;;;;;8218153;28;20058;-62
2023/03/08 03:12:30;;;;;;;13.70;7.00;;;;;;;;;;8222048;28;20040;-61
2023/03/08 03:16:31;;;;;;;10.88;6.35;;;;;;;;;;8218899;28;20084;-61
2023/03/08 03:20:32;;;;;;;12.30;7.45;;;;;;;;;;8218086;28;20031;-61
2023/03/08 03:24:32;;;;;;;9.48;7.07;;;;;;;;;;8217208;28;20033;-61
2023/03/08 03:28:32;;;;;;;10.68;7.30;;;;;;;;;;8220121;28;20026;-61
2023/03/08 03:32:32;;;;;;;10.57;6.30;;;;;;;;;;8219810;28;20080;-61
2023/03/08 03:36:33;;;;;;;11.23;6.75;;;;;;;;;;8222427;28;20026;-61
2023/03/08 03:40:33;;;;;;;11.20;6.57;;;;;;;;;;8218756;28;20085;-61
2023/03/08 03:44:33;;;;;;;10.27;7.20;;;;;;;;;;8222410;28;20034;-61
2023/03/08 03:48:34;;;;;;;10.80;6.60;;;;;;;;;;8219919;28;20065;-61
2023/03/08 03:52:34;;;;;;;12.27;7.13;;;;;;;;;;8236924;28;20578;-61
2023/03/08 03:56:34;;;;;;;11.75;6.72;;;;;;;;;;8221901;28;20062;-61
2023/03/08 04:00:35;;;;;;;11.23;6.65;;;;;;;;;;8224257;28;20030;-61
2023/03/08 04:04:35;;;;;;;11.23;7.10;;;;;;;;;;8223490;28;20027;-61
2023/03/08 04:08:40;;;;;;;11.95;6.80;;;;;;;;;;8226228;28;20027;-61
2023/03/08 04:12:41;;;;;;;11.32;6.47;;;;;;;;;;8227049;28;20511;-62
2023/03/08 04:16:41;;;;;;;11.00;6.43;;;;;;;;;;8227890;28;20042;-61
2023/03/08 04:20:42;;;;;;;10.10;6.70;;;;;;;;;;8224495;28;20566;-61
2023/03/08 04:24:42;;;;;;;10.90;7.32;;;;;;;;;;8227952;28;20030;-61
2023/03/08 04:28:43;;;;;;;10.48;6.40;;;;;;;;;;8222997;28;20026;-61
2023/03/08 04:32:43;;;;;;;10.50;6.28;;;;;;;;;;8225476;28;20026;-61
2023/03/08 04:36:43;;;;;;;10.93;6.75;;;;;;;;;;8225768;28;20030;-62
2023/03/08 04:41:33;;;;;;;11.23;6.13;;;;;;;;;;8228481;28;20038;-61
2023/03/08 04:45:09;;;;;;;9.80;6.47;;;;;;;;;;8220113;28;20034;-61
2023/03/08 04:49:09;;;;;;;8.73;6.20;;;;;;;;;;8228486;28;20041;-62
2023/03/08 04:53:09;;;;;;;13.35;6.60;;;;;;;;;;8229809;28;20767;-61
2023/03/08 04:57:09;;;;;;;8.40;5.57;;;;;;;;;;8227640;28;20462;-61
2023/03/08 05:01:09;;;;;;;11.07;6.07;;;;;;;;;;8224327;28;20049;-62
2023/03/08 05:05:10;;;;;;;11.40;6.63;;;;;;;;;;8223739;28;20096;-61
2023/03/08 05:09:10;;;;;;;10.82;6.25;;;;;;;;;;8225825;28;20034;-62
2023/03/08 05:13:10;;;;;;;9.98;6.47;;;;;;;;;;8228789;28;20721;-61
2023/03/08 05:17:10;;;;;;;9.77;6.28;;;;;;;;;;8225397;28;20049;-62
2023/03/08 05:21:12;;;;;;;10.77;6.35;;;;;;;;;;8223219;28;20547;-62
2023/03/08 05:25:12;;;;;;;9.18;5.78;;;;;;;;;;8225162;28;20022;-61
2023/03/08 05:29:12;;;;;;;13.80;7.13;;;;;;;;;;8223291;28;20030;-62
2023/03/08 05:33:13;;;;;;;9.93;5.90;;;;;;;;;;8220170;28;20260;-61
2023/03/08 05:37:13;;;;;;;10.43;6.55;;;;;;;;;;8225824;28;20108;-61
2023/03/08 05:41:15;;;;;;;10.35;6.25;;;;;;;;;;8217514;28;20117;-61
2023/03/08 05:45:15;;;;;;;9.82;6.70;;;;;;;;;;8223668;28;20775;-61
2023/03/08 05:49:15;;;;;;;11.50;6.72;;;;;;;;;;8220303;28;20027;-61
2023/03/08 05:53:15;;;;;;;11.02;6.70;;;;;;;;;;8223507;28;20079;-61
2023/03/08 05:57:16;;;;;;;10.55;6.65;;;;;;;;;;8225813;28;20814;-63
2023/03/08 06:01:20;;;;;;;10.35;5.60;;;;;;;;;;8221058;28;20105;-62
2023/03/08 06:05:20;;;;;;;12.75;7.35;;;;;;;;;;8224489;28;20588;-62
2023/03/08 06:09:20;;;;;;;11.68;6.63;;;;;;;;;;8222538;28;20042;-62
2023/03/08 06:13:21;;;;;;;10.38;6.30;;;;;;;;;;8222231;28;20156;-62
2023/03/08 06:17:21;;;;;;;10.85;6.75;;;;;;;;;;8221668;28;20043;-62
2023/03/08 06:21:21;;;;;;;8.35;5.93;;;;;;;;;;8224140;28;20646;-62
2023/03/08 06:25:22;;;;;;;7.68;5.50;;;;;;;;;;8224413;28;20145;-62
2023/03/08 06:29:22;;;;;;;11.73;6.35;;;;;;;;;;8221623;28;20451;-62
2023/03/08 06:33:24;;;;;;;11.73;6.22;;;;;;;;;;8221387;28;20340;-63
2023/03/08 06:37:24;;;;;;;8.82;6.20;;;;;;;;;;8222812;28;20787;-62
2023/03/08 06:41:24;;;;;;;11.80;7.10;;;;;;;;;;8220973;28;20054;-61
2023/03/08 06:45:24;;;;;;;11.43;6.57;;;;;;;;;;8222876;28;20035;-62
2023/03/08 06:49:24;;;;;;;9.63;5.85;;;;;;;;;;8218841;28;20731;-62
2023/03/08 06:53:25;;;;;;;13.90;7.57;;;;;;;;;;8215040;28;20031;-62
2023/03/08 06:57:25;;;;;;;10.40;6.40;;;;;;;;;;8213840;28;20366;-62
2023/03/08 07:01:26;;;;;;;10.20;6.80;;;;;;;;;;8210515;28;20658;-62
2023/03/08 07:05:26;;;;;;;13.38;6.75;;;;;;;;;;8213831;28;20031;-62
2023/03/08 07:09:26;;;;;;;13.93;7.32;;;;;;;;;;8215242;28;20096;-61
2023/03/08 07:13:27;;;;;;;10.20;6.53;;;;;;;;;;8216698;28;20462;-61
2023/03/08 07:17:28;;;;;;;11.85;6.57;;;;;;;;;;8217572;28;20461;-61
2023/03/08 07:21:28;;;;;;;10.15;6.40;;;;;;;;;;8212915;28;20081;-62
2023/03/08 07:25:28;;;;;;;10.70;6.38;;;;;;;;;;8218963;28;20029;-61
2023/03/08 07:29:29;;;;;;;12.43;7.60;;;;;;;;;;8221347;28;20030;-63
2023/03/08 07:33:29;;;;;;;12.70;8.23;;;;;;;;;;8221765;28;20660;-64
2023/03/08 07:37:29;;;;;;;12.47;7.67;;;;;;;;;;8218155;28;21955;-63
2023/03/08 07:41:31;;;;;;;11.52;7.25;;;;;;;;;;8214833;28;20284;-63
2023/03/08 07:45:32;;;;;;;16.55;8.75;;;;;;;;;;8224249;28;20064;-63
2023/03/08 07:49:32;;;;;;;15.63;8.25;;;;;;;;;;8221470;28;20026;-63
2023/03/08 07:53:33;;;;;;;13.95;8.15;;;;;;;;;;8224689;28;20022;-63
2023/03/08 07:57:33;;;;;;;11.68;7.28;;;;;;;;;;8223346;28;20399;-63
2023/03/08 08:01:33;;;;;;;9.95;7.13;;;;;;;;;;8229447;28;20030;-64
2023/03/08 08:05:34;;;;;;;20.50;13.10;;;;;;;;;;8223145;28;20052;-63
2023/03/08 08:09:36;;;;;;;17.33;10.07;;;;;;;;;;8220704;28;20018;-63
2023/03/08 08:13:36;;;;;;;9.90;6.80;;;;;;;;;;8224924;28;20023;-64
2023/03/08 08:17:36;;;;;;;23.60;8.15;;;;;;;;;;8223010;28;20113;-63
2023/03/08 08:21:36;;;;;;;21.73;7.65;;;;;;;;;;8224554;28;20169;-62
2023/03/08 08:25:37;;;;;;;72.68;10.70;;;;;;;;;;8221714;28;20554;-63
2023/03/08 08:29:38;;;;;;;28.73;12.57;;;;;;;;;;8224242;28;20491;-63
2023/03/08 08:33:38;;;;;;;57.63;11.98;;;;;;;;;;8223559;28;20458;-63
2023/03/08 08:37:38;;;;;;;56.78;10.95;;;;;;;;;;8224122;28;20022;-63
2023/03/08 08:41:38;;;;;;;87.72;10.93;;;;;;;;;;8219459;28;20538;-64
2023/03/08 08:45:45;;;;;;;13.73;9.18;;;;;;;;;;8222338;28;20074;-62
2023/03/08 08:49:45;;;;;;;20.55;8.73;;;;;;;;;;8220151;28;20042;-63
2023/03/08 08:53:46;;;;;;;22.35;11.30;;;;;;;;;;8221002;28;20403;-64
2023/03/08 08:57:46;;;;;;;21.38;10.32;;;;;;;;;;8216309;28;20769;-63
2023/03/08 09:01:46;;;;;;;31.98;9.75;;;;;;;;;;8222463;28;20682;-63
2023/03/08 09:05:46;;;;;;;18.70;7.95;;;;;;;;;;8228144;28;20031;-63
2023/03/08 09:09:47;;;;;;;17.90;7.90;;;;;;;;;;8222204;28;20104;-63
2023/03/08 09:13:47;;;;;;;11.52;7.65;;;;;;;;;;8220503;28;20098;-63
2023/03/08 09:17:48;;;;;;;13.90;7.88;;;;;;;;;;8219484;28;20042;-63
2023/03/08 09:21:48;;;;;;;37.92;9.93;;;;;;;;;;8220530;28;20109;-62
2023/03/08 09:25:55;;;;;;;14.55;8.80;;;;;;;;;;8218658;28;20456;-64
2023/03/08 09:29:55;;;;;;;13.40;8.38;;;;;;;;;;8218281;28;20048;-63
2023/03/08 09:33:56;;;;;;;10.85;7.47;;;;;;;;;;8218699;28;20355;-64
2023/03/08 09:37:56;;;;;;;11.80;7.37;;;;;;;;;;8220267;28;20338;-64
2023/03/08 09:41:57;;;;;;;16.33;9.10;;;;;;;;;;8222801;28;20277;-64
2023/03/08 09:45:58;;;;;;;17.58;9.98;;;;;;;;;;8218631;28;20503;-64
2023/03/08 09:50:08;;;;;;;13.60;8.07;;;;;;;;;;8221494;28;20030;-64
2023/03/08 09:54:12;;;;;;;11.32;7.28;;;;;;;;;;8221736;28;20583;-64
2023/03/08 09:58:18;;;;;;;12.23;7.73;;;;;;;;;;8219917;28;20406;-64
2023/03/08 10:02:24;;;;;;;12.18;7.90;;;;;;;;;;8221788;28;20030;-64
2023/03/08 10:06:24;;;;;;;10.75;7.40;;;;;;;;;;8218801;28;20036;-64
2023/03/08 10:10:25;;;;;;;8.20;6.38;;;;;;;;;;8222285;28;20121;-64
2023/03/08 10:14:27;;;;;;;8.75;5.90;;;;;;;;;;8219428;28;20046;-64
2023/03/08 10:18:29;;;;;;;8.68;6.57;;;;;;;;;;8218143;28;20820;-64
2023/03/08 10:22:31;;;;;;;7.38;5.82;;;;;;;;;;8224058;28;20886;-63
2023/03/08 10:26:31;;;;;;;6.05;4.70;;;;;;;;;;8218919;28;20172;-64
2023/03/08 10:30:36;;;;;;;6.72;5.28;;;;;;;;;;8218980;28;20100;-64
2023/03/08 10:34:36;;;;;;;6.47;4.95;;;;;;;;;;8221747;28;20030;-63
2023/03/08 10:38:37;;;;;;;4.20;3.72;;;;;;;;;;8222661;28;20026;-64
2023/03/08 10:42:41;;;;;;;4.15;3.35;;;;;;;;;;8223108;28;20440;-64
2023/03/08 10:46:46;;;;;;;2.70;2.50;;;;;;;;;;8222208;28;20451;-63
2023/03/08 10:50:56;;;;;;;2.60;2.08;;;;;;;;;;8222044;28;20029;-64
2023/03/08 10:55:02;;;;;;;1.92;1.80;;;;;;;;;;8220467;28;20189;-64
2023/03/08 10:59:03;;;;;;;2.47;2.20;;;;;;;;;;8223110;28;20363;-64
2023/03/08 11:03:09;;;;;;;1.90;1.80;;;;;;;;;;8219137;28;20035;-64
2023/03/08 11:07:17;;;;;;;1.88;1.70;;;;;;;;;;8222192;28;20030;-64
2023/03/08 11:11:17;;;;;;;2.55;1.90;;;;;;;;;;8214274;28;20542;-63
2023/03/08 11:15:19;;;;;;;1.80;1.57;;;;;;;;;;8216654;28;20394;-63
2023/03/08 11:19:31;;;;;;;1.90;1.80;;;;;;;;;;8215957;28;20273;-64
2023/03/08 11:23:36;;;;;;;2.00;1.80;;;;;;;;;;8216287;28;20634;-63
2023/03/08 11:27:43;;;;;;;1.70;1.60;;;;;;;;;;8213025;28;20025;-64
2023/03/08 11:31:49;;;;;;;1.60;1.50;;;;;;;;;;8216524;28;20529;-63
2023/03/08 11:36:04;;;;;;;1.60;1.50;;;;;;;;;;8217801;28;20435;-63
2023/03/08 11:40:25;;;;;;;1.70;1.60;;;;;;;;;;8216851;28;20046;-64
2023/03/08 11:44:40;;;;;;;2.05;1.83;;;;;;;;;;8217784;28;20314;-62
2023/03/08 11:48:41;;;;;;;2.20;1.90;;;;;;;;;;8215831;28;20499;-62
2023/03/08 11:52:59;;;;;;;2.35;2.15;;;;;;;;;;8217431;28;20394;-62
2023/03/08 11:57:01;;;;;;;1.90;1.80;;;;;;;;;;8217033;28;20567;-63
2023/03/08 12:01:03;;;;;;;2.85;1.65;;;;;;;;;;8219117;28;20030;-63
2023/03/08 12:05:13;;;;;;;2.40;1.67;;;;;;;;;;8216820;28;20107;-62
2023/03/08 12:09:17;;;;;;;1.60;1.50;;;;;;;;;;8218401;28;20478;-62
2023/03/08 12:13:44;;;;;;;1.50;1.40;;;;;;;;;;8215097;28;20271;-62
2023/03/08 12:17:47;;;;;;;1.65;1.55;;;;;;;;;;8215800;28;20240;-62
2023/03/08 12:22:06;;;;;;;1.80;1.70;;;;;;;;;;8220267;28;20607;-62
2023/03/08 12:26:15;;;;;;;1.70;1.60;;;;;;;;;;8219117;28;20029;-63
2023/03/08 12:30:18;;;;;;;2.08;1.88;;;;;;;;;;8223938;28;20098;-62
2023/03/08 12:34:36;;;;;;;1.70;1.60;;;;;;;;;;8225612;28;20026;-62
2023/03/08 12:38:36;;;;;;;1.63;1.52;;;;;;;;;;8226256;28;20116;-63
2023/03/08 12:42:38;;;;;;;1.98;1.88;;;;;;;;;;8225141;28;20022;-63
2023/03/08 12:46:46;;;;;;;2.00;1.85;;;;;;;;;;8223880;28;20538;-64
2023/03/08 12:50:53;;;;;;;1.70;1.52;;;;;;;;;;8224706;28;20042;-62
2023/03/08 12:54:58;;;;;;;1.80;1.70;;;;;;;;;;8221970;28;20249;-63
2023/03/08 12:59:00;;;;;;;1.98;1.88;;;;;;;;;;8228000;28;20129;-62
2023/03/08 13:03:05;;;;;;;2.00;1.80;;;;;;;;;;8231398;28;20071;-62
2023/03/08 13:07:29;;;;;;;2.53;1.90;;;;;;;;;;8222772;28;20045;-62
2023/03/08 13:11:40;;;;;;;1.70;1.58;;;;;;;;;;8221796;28;20073;-62
2023/03/08 13:15:40;;;;;;;2.28;1.88;;;;;;;;;;8221258;28;20035;-62
2023/03/08 13:19:41;;;;;;;2.35;2.15;;;;;;;;;;8219873;28;20030;-63
2023/03/08 13:23:45;;;;;;;2.53;1.85;;;;;;;;;;8221869;28;20454;-63
2023/03/08 13:27:59;;;;;;;2.85;2.28;;;;;;;;;;8225134;28;20021;-63
2023/03/08 13:32:14;;;;;;;1.73;1.63;;;;;;;;;;8221851;28;20113;-63
2023/03/08 13:36:19;;;;;;;2.55;1.92;;;;;;;;;;8220271;28;20108;-63
2023/03/08 13:40:20;;;;;;;1.40;1.30;;;;;;;;;;8220205;28;20027;-62
2023/03/08 13:44:21;;;;;;;1.65;1.35;;;;;;;;;;8221178;28;20022;-62
2023/03/08 13:48:23;;;;;;;1.58;1.48;;;;;;;;;;8219770;28;20034;-62
2023/03/08 13:52:28;;;;;;;2.05;1.30;;;;;;;;;;8221371;28;20085;-63
2023/03/08 13:56:28;;;;;;;1.73;1.63;;;;;;;;;;8221196;28;20555;-63
2023/03/08 14:00:30;;;;;;;2.93;1.90;;;;;;;;;;8224096;28;20424;-62
2023/03/08 14:04:33;;;;;;;1.92;1.80;;;;;;;;;;8225040;28;20538;-62
2023/03/08 14:08:33;;;;;;;1.55;1.30;;;;;;;;;;8222381;28;20914;-62
2023/03/08 14:12:33;;;;;;;2.45;1.30;;;;;;;;;;8221796;28;20030;-62
2023/03/08 14:16:35;;;;;;;2.35;1.30;;;;;;;;;;8221614;28;20069;-62
2023/03/08 14:20:36;;;;;;;1.30;1.20;;;;;;;;;;8220783;28;20030;-63
2023/03/08 14:24:36;;;;;;;5.25;1.17;;;;;;;;;;8222281;28;20461;-63
2023/03/08 14:28:40;;;;;;;1.20;1.10;;;;;;;;;;8221883;28;20021;-63
2023/03/08 14:32:41;;;;;;;;;;;;;;;;;;8224741;28;20035;-63
2023/03/08 14:36:47;;;;;;;2.97;1.20;;;;;;;;;;8227293;28;19918;-63
2023/03/08 14:40:48;;;;;;;0.90;0.90;;;;;;;;;;8223831;28;20904;-63
2023/03/08 14:44:49;;;;;;;1.40;1.30;;;;;;;;;;8222364;28;20781;-63
2023/03/08 14:49:03;;;;;;;1.27;1.17;;;;;;;;;;8225977;28;20690;-62
2023/03/08 14:53:22;;;;;;;1.30;1.10;;;;;;;;;;8231364;28;20628;-62
2023/03/08 14:57:23;;;;;;;2.03;1.63;;;;;;;;;;8230022;28;20034;-63
2023/03/08 15:01:28;;;;;;;1.50;1.40;;;;;;;;;;8224497;28;20034;-62
2023/03/08 15:05:28;;;;;;;1.20;1.10;;;;;;;;;;8229829;28;20073;-62
2023/03/08 15:09:30;;;;;;;1.30;1.20;;;;;;;;;;8223168;28;20091;-62
2023/03/08 15:13:31;;;;;;;1.70;1.60;;;;;;;;;;8231472;28;20760;-62
2023/03/08 15:17:31;;;;;;;1.73;1.63;;;;;;;;;;8224644;28;20056;-62
2023/03/08 15:21:32;;;;;;;2.03;1.73;;;;;;;;;;8230568;28;20030;-62
2023/03/08 15:25:34;;;;;;;1.92;1.83;;;;;;;;;;8227278;28;20057;-62
2023/03/08 15:29:35;;;;;;;1.98;1.77;;;;;;;;;;8231106;28;20022;-62
2023/03/08 15:33:35;;;;;;;2.90;1.58;;;;;;;;;;8232379;28;20034;-63
2023/03/08 15:37:36;;;;;;;1.75;1.65;;;;;;;;;;8229862;28;20455;-62
2023/03/08 15:41:36;;;;;;;1.83;1.57;;;;;;;;;;8224813;28;20022;-63
2023/03/08 15:45:36;;;;;;;1.50;1.40;;;;;;;;;;8221788;28;20304;-63
2023/03/08 15:49:37;;;;;;;1.50;1.38;;;;;;;;;;8222452;28;20029;-62
2023/03/08 15:53:37;;;;;;;2.15;1.30;;;;;;;;;;8217467;28;20022;-62
2023/03/08 15:57:38;;;;;;;1.17;1.17;;;;;;;;;;8212833;28;20030;-62
2023/03/08 16:01:38;;;;;;;1.30;1.20;;;;;;;;;;8221074;28;20922;-62
2023/03/08 16:05:38;;;;;;;2.45;1.30;;;;;;;;;;8232295;28;20133;-61
2023/03/08 16:09:38;;;;;;;1.58;1.48;;;;;;;;;;8231400;28;20030;-62
2023/03/08 16:13:39;;;;;;;1.60;1.50;;;;;;;;;;8236533;28;20939;-62
2023/03/08 16:17:39;;;;;;;1.80;1.70;;;;;;;;;;8233709;28;20960;-63
2023/03/08 16:21:39;;;;;;;2.13;1.92;;;;;;;;;;8236189;28;20992;-62
2023/03/08 16:25:42;;;;;;;2.05;1.63;;;;;;;;;;8233299;28;20022;-63
2023/03/08 16:29:42;;;;;;;1.60;1.50;;;;;;;;;;8228574;28;20022;-64
2023/03/08 16:33:42;;;;;;;2.00;1.80;;;;;;;;;;8232242;28;20181;-63
2023/03/08 16:37:42;;;;;;;1.95;1.45;;;;;;;;;;8234154;28;20022;-63
2023/03/08 16:41:42;;;;;;;3.97;1.30;;;;;;;;;;8231492;28;20077;-62
2023/03/08 16:45:51;;;;;;;1.00;1.00;;;;;;;;;;8230981;28;20062;-63
2023/03/08 16:49:52;;;;;;;1.58;1.15;;;;;;;;;;8232624;28;20018;-63
2023/03/08 16:53:53;;;;;;;1.30;0.90;;;;;;;;;;8232167;28;20117;-62
2023/03/08 16:57:53;;;;;;;3.35;1.23;;;;;;;;;;8231919;28;20161;-63
2023/03/08 17:01:53;;;;;;;2.47;1.23;;;;;;;;;;8224251;28;20034;-63
2023/03/08 17:05:53;;;;;;;1.67;1.33;;;;;;;;;;8230307;28;20034;-63
2023/03/08 17:09:54;;;;;;;2.95;1.13;;;;;;;;;;8229151;28;20038;-63
2023/03/08 17:13:55;;;;;;;2.10;1.30;;;;;;;;;;8229331;28;20053;-63
2023/03/08 17:17:56;;;;;;;0.90;0.90;;;;;;;;;;8229703;28;20066;-63
2023/03/08 17:21:56;;;;;;;2.83;1.10;;;;;;;;;;8224030;28;20042;-63
2023/03/08 17:25:56;;;;;;;1.17;1.08;;;;;;;;;;8222100;28;20830;-63
2023/03/08 17:29:57;;;;;;;0.85;0.85;;;;;;;;;;8220999;28;20054;-63
2023/03/08 17:33:57;;;;;;;0.73;0.70;;;;;;;;;;8220974;28;20611;-63
2023/03/08 17:37:57;;;;;;;0.70;0.70;;;;;;;;;;8224614;28;20446;-63
2023/03/08 17:41:57;;;;;;;1.65;0.95;;;;;;;;;;8223500;28;20433;-63
2023/03/08 17:45:59;;;;;;;1.10;1.10;;;;;;;;;;8226574;28;20062;-63
2023/03/08 17:49:59;;;;;;;0.85;0.80;;;;;;;;;;8227329;28;20275;-63
2023/03/08 17:53:59;;;;;;;1.63;1.05;;;;;;;;;;8224486;28;20601;-63
2023/03/08 17:58:00;;;;;;;5.07;1.02;;;;;;;;;;8222937;28;20121;-63
2023/03/08 18:02:00;;;;;;;3.40;1.02;;;;;;;;;;8226418;28;20034;-63
2023/03/08 18:06:00;;;;;;;2.47;1.00;;;;;;;;;;8229129;28;20034;-63
2023/03/08 18:10:03;;;;;;;4.50;1.10;;;;;;;;;;8224371;28;20574;-63
2023/03/08 18:14:04;;;;;;;1.27;1.20;;;;;;;;;;8228414;28;20111;-63
2023/03/08 18:18:04;;;;;;;1.58;1.48;;;;;;;;;;8232886;28;20095;-63
2023/03/08 18:22:06;;;;;;;1.63;1.42;;;;;;;;;;8230987;28;20023;-66
2023/03/08 18:26:06;;;;;;;2.15;1.30;;;;;;;;;;8228258;28;20027;-63
2023/03/08 18:30:07;;;;;;;1.70;1.60;;;;;;;;;;8231632;28;20985;-63
2023/03/08 18:34:08;;;;;;;1.50;1.40;;;;;;;;;;8231834;28;20097;-63
2023/03/08 18:38:08;;;;;;;1.10;1.10;;;;;;;;;;8232730;28;20036;-63
2023/03/08 18:42:09;;;;;;;1.10;1.10;;;;;;;;;;8231728;28;20049;-63
2023/03/08 18:46:11;;;;;;;1.77;1.27;;;;;;;;;;8228626;28;20069;-63
2023/03/08 18:50:11;;;;;;;1.60;1.50;;;;;;;;;;8229040;28;20033;-63
2023/03/08 18:54:16;;;;;;;1.45;1.35;;;;;;;;;;8226500;28;20014;-63
2023/03/08 18:58:16;;;;;;;1.58;1.48;;;;;;;;;;8224308;28;20027;-63
2023/03/08 19:02:17;;;;;;;4.80;1.70;;;;;;;;;;8226938;28;20035;-64
2023/03/08 19:06:17;;;;;;;1.48;1.38;;;;;;;;;;8225942;28;20053;-63
2023/03/08 19:10:17;;;;;;;1.30;1.20;;;;;;;;;;8225775;28;20027;-63
2023/03/08 19:14:18;;;;;;;1.60;1.33;;;;;;;;;;8229376;28;20029;-63
2023/03/08 19:18:18;;;;;;;2.30;1.55;;;;;;;;;;8230028;28;20046;-63
2023/03/08 19:22:18;;;;;;;2.35;1.40;;;;;;;;;;8227188;28;20029;-63
2023/03/08 19:30:35;;;;;;;1.55;1.40;;;;;;;;;;8232841;28;21036;-63
2023/03/08 19:34:36;;;;;;;1.35;1.20;;;;;;;;;;8229162;28;20037;-63
2023/03/08 19:38:36;;;;;;;3.60;1.30;;;;;;;;;;8233220;28;20116;-63
2023/03/08 19:42:36;;;;;;;1.48;1.15;;;;;;;;;;8236165;28;20053;-63
2023/03/08 19:46:38;;;;;;;1.05;1.05;;;;;;;;;;8233825;28;20919;-63
2023/03/08 19:50:42;;;;;;;1.00;1.00;;;;;;;;;;8237757;28;20022;-64
2023/03/08 19:54:44;;;;;;;1.17;1.15;;;;;;;;;;8232561;28;20019;-63
2023/03/08 19:58:45;;;;;;;1.00;1.00;;;;;;;;;;8233796;28;20790;-62
2023/03/08 20:02:45;;;;;;;0.95;0.90;;;;;;;;;;8235922;28;20404;-63
2023/03/08 20:06:46;;;;;;;0.85;0.85;;;;;;;;;;8232740;28;20057;-63
2023/03/08 20:10:48;;;;;;;1.90;0.90;;;;;;;;;;8235607;28;20985;-63
2023/03/08 20:14:48;;;;;;;0.70;0.70;;;;;;;;;;8232435;28;20030;-63
2023/03/08 20:18:48;;;;;;;2.00;0.73;;;;;;;;;;8236246;28;20915;-64
2023/03/08 20:22:48;;;;;;;1.00;0.80;;;;;;;;;;8230317;28;20038;-63
2023/03/08 20:26:49;;;;;;;0.98;0.93;;;;;;;;;;8232160;28;20022;-63
2023/03/08 20:30:49;;;;;;;2.00;1.08;;;;;;;;;;8226043;28;20498;-64
2023/03/08 20:34:49;;;;;;;1.05;1.00;;;;;;;;;;8236956;28;20048;-63
2023/03/08 20:38:49;;;;;;;1.10;1.10;;;;;;;;;;8234828;28;20029;-63
2023/03/08 20:42:49;;;;;;;1.30;0.98;;;;;;;;;;8235147;28;20865;-63
2023/03/08 20:46:50;;;;;;;1.08;1.08;;;;;;;;;;8232090;28;20395;-63
2023/03/08 20:50:56;;;;;;;0.98;0.90;;;;;;;;;;8234337;28;21939;-63
2023/03/08 20:54:56;;;;;;;1.10;1.10;;;;;;;;;;8230169;28;20034;-63
2023/03/08 20:58:59;;;;;;;1.83;1.40;;;;;;;;;;8236481;28;20080;-63
2023/03/08 21:02:59;;;;;;;1.73;1.63;;;;;;;;;;8235157;28;20138;-63
2023/03/08 21:06:59;;;;;;;2.37;2.10;;;;;;;;;;8233434;28;20023;-63
2023/03/08 21:10:59;;;;;;;2.60;2.40;;;;;;;;;;8230390;28;20047;-63
2023/03/08 21:14:59;;;;;;;2.47;2.38;;;;;;;;;;8231250;28;20037;-63
2023/03/08 21:19:01;;;;;;;3.35;3.15;;;;;;;;;;8232612;28;20159;-63
2023/03/08 21:23:01;;;;;;;3.00;2.80;;;;;;;;;;8233688;28;20105;-63
2023/03/08 21:27:01;;;;;;;3.67;3.38;;;;;;;;;;8228976;28;20815;-63
2023/03/08 21:31:06;;;;;;;3.70;3.40;;;;;;;;;;8230103;28;20038;-63
2023/03/08 21:35:06;;;;;;;3.65;3.35;;;;;;;;;;8230851;28;20444;-63
2023/03/08 21:39:07;;;;;;;4.43;4.03;;;;;;;;;;8230065;28;20025;-63
2023/03/08 21:43:08;;;;;;;3.63;3.35;;;;;;;;;;8229636;28;20052;-63
2023/03/08 21:47:08;;;;;;;4.07;3.13;;;;;;;;;;8233221;28;20165;-63
2023/03/08 21:51:08;;;;;;;4.40;3.60;;;;;;;;;;8232320;28;20149;-63
2023/03/08 21:55:09;;;;;;;5.17;3.67;;;;;;;;;;8232993;28;20034;-64
2023/03/08 21:59:09;;;;;;;4.25;3.85;;;;;;;;;;8228955;28;20282;-63
2023/03/08 22:03:10;;;;;;;3.85;3.55;;;;;;;;;;8231520;28;20041;-63
2023/03/08 22:07:10;;;;;;;3.50;3.20;;;;;;;;;;8231080;28;20038;-63
2023/03/08 22:11:11;;;;;;;3.80;3.20;;;;;;;;;;8229214;28;20101;-63
2023/03/08 22:15:11;;;;;;;6.45;3.47;;;;;;;;;;8233679;28;20339;-63
2023/03/08 22:19:11;;;;;;;4.30;3.90;;;;;;;;;;8262930;28;20036;-63
2023/03/08 22:23:11;;;;;;;6.03;5.10;;;;;;;;;;8261492;28;20981;-63
2023/03/08 22:27:12;;;;;;;5.40;4.90;;;;;;;;;;8260756;28;20053;-63
2023/03/08 22:31:14;;;;;;;4.95;4.55;;;;;;;;;;8248469;28;20285;-63
2023/03/08 22:35:14;;;;;;;4.70;4.30;;;;;;;;;;8224541;28;20025;-63
2023/03/08 22:39:14;;;;;;;4.00;3.70;;;;;;;;;;8231384;28;20121;-63
2023/03/08 22:43:14;;;;;;;4.03;3.72;;;;;;;;;;8228946;28;20284;-63
2023/03/08 22:47:15;;;;;;;5.80;5.32;;;;;;;;;;8222959;28;20898;-63
2023/03/08 22:51:16;;;;;;;5.63;5.13;;;;;;;;;;8229258;28;20041;-63
2023/03/08 22:55:16;;;;;;;6.30;5.70;;;;;;;;;;8228294;28;20114;-63
2023/03/08 22:59:16;;;;;;;6.13;4.30;;;;;;;;;;8225766;28;20510;-63
2023/03/08 23:03:17;;;;;;;3.95;3.65;;;;;;;;;;8225516;28;20038;-63
2023/03/08 23:07:17;;;;;;;3.38;3.08;;;;;;;;;;8233572;28;20428;-63
2023/03/08 23:11:17;;;;;;;3.90;3.15;;;;;;;;;;8227716;28;20034;-63
2023/03/08 23:15:17;;;;;;;3.03;2.72;;;;;;;;;;8228747;28;20042;-63
2023/03/08 23:19:18;;;;;;;2.90;2.45;;;;;;;;;;8226954;28;20029;-63
2023/03/08 23:23:19;;;;;;;2.28;2.00;;;;;;;;;;8227975;28;20030;-63
2023/03/08 23:27:19;;;;;;;2.33;1.75;;;;;;;;;;8229997;28;20045;-63
2023/03/08 23:31:20;;;;;;;2.53;1.80;;;;;;;;;;8225737;28;20038;-63
2023/03/08 23:35:20;;;;;;;1.73;1.63;;;;;;;;;;8228035;28;20031;-63
2023/03/08 23:39:21;;;;;;;1.70;1.60;;;;;;;;;;8232694;28;20104;-63
2023/03/08 23:43:21;;;;;;;2.40;1.40;;;;;;;;;;8230661;28;20774;-63
2023/03/08 23:47:21;;;;;;;1.77;1.20;;;;;;;;;;8228349;28;20053;-63
2023/03/08 23:51:22;;;;;;;1.85;0.95;;;;;;;;;;8232425;28;20023;-63
2023/03/08 23:55:22;;;;;;;0.85;0.63;;;;;;;;;;8230893;28;20057;-63
2023/03/08 23:59:22;;;;;;;1.23;0.80;;;;;;;;;;8230976;28;20022;-63
